CMA CGM St Laurent — V7DT3 — position and weather

sailwx.info

Track history (hours):
 
Tides and Currents Weather Stations Pressure Air Temp Water Temp Dewpoint Dewpoint Depression Visibility Wind Speed Wind Dir Waves Ship Positions

CMA CGM St Laurent

Last reported at 2018-Mar-31 21:27 UTC. Time now 2018-Jun-24 11:06 UTC.
Position S 23°05' W 042°43'.
Warning: this ship's position is months out of date.

Length 162.9 m; beam 22.3 m; draft 8.1 m.

Type: Cargo ship. MMSI: 538006477.

Date/timePositionNaut miles runAvg speedWind from/ knotsBaromVisibWave heightAir tempDewpointWater temp
2018-Mar-31 21:27S 23°05' W 042°43'510.5
2018-Mar-31 21:01S 23°05' W 042°48'510.4
2018-Mar-31 20:30S 23°05' W 042°53'510.5
2018-Mar-31 20:00S 23°04' W 042°59'510.1
2018-Mar-31 19:31S 23°04' W 043°04'510.7
2018-Mar-31 19:00S 22°59' W 043°08'510.1
2018-Mar-31 18:31S 22°54' W 043°09'2 3.6
2018-Mar-31 18:01S 22°53' W 043°10'0 0.1
2018-Mar-31 17:30S 22°53' W 043°10'0 0.0
2018-Mar-31 17:00S 22°53' W 043°10'0 0.0
2018-Mar-31 16:30S 22°53' W 043°10'0 0.0
2018-Mar-31 16:00S 22°53' W 043°10'0 0.0
2018-Mar-31 15:30S 22°53' W 043°10'0 0.1
2018-Mar-31 15:00S 22°53' W 043°10'0 0.0
2018-Mar-31 14:30S 22°53' W 043°10'0 0.1
2018-Mar-31 14:00S 22°53' W 043°10'0 0.2
2018-Mar-31 13:30S 22°53' W 043°10'0 0.1
2018-Mar-31 13:00S 22°53' W 043°10'0 0.0
2018-Mar-31 12:30S 22°53' W 043°10'0 0.1
2018-Mar-31 12:00S 22°53' W 043°10'0 0.0
2018-Mar-31 11:30S 22°53' W 043°10'0 0.0
2018-Mar-31 11:00S 22°53' W 043°10'0 0.1
2018-Mar-31 10:30S 22°53' W 043°10'0 0.4
2018-Mar-31 10:00S 22°53' W 043°10'2 3.6
2018-Mar-31 09:30S 22°55' W 043°09'4 7.7
2018-Mar-31 09:00S 22°58' W 043°08'3 5.5
2018-Mar-31 08:30S 23°01' W 043°09'1 2.6
2018-Mar-31 08:00S 23°02' W 043°09'2 4.6
2018-Mar-31 07:30S 23°04' W 043°11'4 7.5
2018-Mar-31 07:00S 23°08' W 043°12'1 2.1
2018-Mar-31 06:30S 23°09' W 043°12'1 2.1
2018-Mar-31 06:00S 23°09' W 043°13'2 4.3
2018-Mar-31 05:29S 23°11' W 043°14'2 4.3
2018-Mar-31 05:00S 23°13' W 043°15'2 4.1
2018-Mar-31 04:30S 23°15' W 043°15'3 5.6
2018-Mar-31 04:00S 23°18' W 043°17'510.4
2018-Mar-31 03:30S 23°22' W 043°20'510.7
2018-Mar-31 03:00S 23°27' W 043°22'511.0
2018-Mar-31 02:30S 23°32' W 043°24'711.2
2018-Mar-31 01:52S 23°39' W 043°27'511.1
2018-Mar-31 01:24S 23°43' W 043°30'  
Track history (hours):
 
Tides and Currents Weather Stations Pressure Air Temp Water Temp Dewpoint Dewpoint Depression Visibility Wind Speed Wind Dir Waves Ship Positions

CMA CGM St Laurent

Last reported at 2018-Mar-31 21:27 UTC. Time now 2018-Jun-24 11:06 UTC.
Position S 23°05' W 042°43'.
Warning: this ship's position is months out of date.

Length 162.9 m; beam 22.3 m; draft 8.1 m.

Type: Cargo ship. MMSI: 538006477.

Date/timePositionNaut miles runAvg speedWind from/ knotsBaromVisibWave heightAir tempDewpointWater temp
2018-Mar-31 21:27S 23°05' W 042°43'510.5
2018-Mar-31 21:01S 23°05' W 042°48'510.4
2018-Mar-31 20:30S 23°05' W 042°53'510.5
2018-Mar-31 20:00S 23°04' W 042°59'510.1
2018-Mar-31 19:31S 23°04' W 043°04'510.7
2018-Mar-31 19:00S 22°59' W 043°08'510.1
2018-Mar-31 18:31S 22°54' W 043°09'2 3.6
2018-Mar-31 18:01S 22°53' W 043°10'0 0.1
2018-Mar-31 17:30S 22°53' W 043°10'0 0.0
2018-Mar-31 17:00S 22°53' W 043°10'0 0.0
2018-Mar-31 16:30S 22°53' W 043°10'0 0.0
2018-Mar-31 16:00S 22°53' W 043°10'0 0.0
2018-Mar-31 15:30S 22°53' W 043°10'0 0.1
2018-Mar-31 15:00S 22°53' W 043°10'0 0.0
2018-Mar-31 14:30S 22°53' W 043°10'0 0.1
2018-Mar-31 14:00S 22°53' W 043°10'0 0.2
2018-Mar-31 13:30S 22°53' W 043°10'0 0.1
2018-Mar-31 13:00S 22°53' W 043°10'0 0.0
2018-Mar-31 12:30S 22°53' W 043°10'0 0.1
2018-Mar-31 12:00S 22°53' W 043°10'0 0.0
2018-Mar-31 11:30S 22°53' W 043°10'0 0.0
2018-Mar-31 11:00S 22°53' W 043°10'0 0.1
2018-Mar-31 10:30S 22°53' W 043°10'0 0.4
2018-Mar-31 10:00S 22°53' W 043°10'2 3.6
2018-Mar-31 09:30S 22°55' W 043°09'4 7.7
2018-Mar-31 09:00S 22°58' W 043°08'3 5.5
2018-Mar-31 08:30S 23°01' W 043°09'1 2.6
2018-Mar-31 08:00S 23°02' W 043°09'2 4.6
2018-Mar-31 07:30S 23°04' W 043°11'4 7.5
2018-Mar-31 07:00S 23°08' W 043°12'1 2.1
2018-Mar-31 06:30S 23°09' W 043°12'1 2.1
2018-Mar-31 06:00S 23°09' W 043°13'2 4.3
2018-Mar-31 05:29S 23°11' W 043°14'2 4.3
2018-Mar-31 05:00S 23°13' W 043°15'2 4.1
2018-Mar-31 04:30S 23°15' W 043°15'3 5.6
2018-Mar-31 04:00S 23°18' W 043°17'510.4
2018-Mar-31 03:30S 23°22' W 043°20'510.7
2018-Mar-31 03:00S 23°27' W 043°22'511.0
2018-Mar-31 02:30S 23°32' W 043°24'711.2
2018-Mar-31 01:52S 23°39' W 043°27'511.1
2018-Mar-31 01:24S 23°43' W 043°30'  

Dump ship's entire track history